createdAt,value
2019-04-26T00:02:12.486Z,14.08
2019-04-26T00:04:41.106Z,14.01
2019-04-26T00:07:10.491Z,13.94
2019-04-26T00:09:40.839Z,13.92
2019-04-26T00:12:23.110Z,13.87
2019-04-26T00:15:10.099Z,13.86
2019-04-26T00:17:41.143Z,13.82
2019-04-26T00:20:11.498Z,13.74
2019-04-26T00:22:40.514Z,13.70
2019-04-26T00:25:09.960Z,13.68
2019-04-26T00:27:39.451Z,13.77
2019-04-26T00:30:08.689Z,13.71
2019-04-26T00:32:37.202Z,13.76
2019-04-26T00:35:06.789Z,13.78
2019-04-26T00:37:35.331Z,13.68
2019-04-26T00:40:04.548Z,13.62
2019-04-26T00:42:34.656Z,13.47
2019-04-26T00:45:03.404Z,13.26
2019-04-26T00:47:32.431Z,13.12
2019-04-26T00:50:01.720Z,13.15
2019-04-26T00:52:31.504Z,13.15
2019-04-26T00:55:01.314Z,13.05
2019-04-26T00:57:32.710Z,13.13
2019-04-26T01:00:02.468Z,13.16
2019-04-26T01:02:32.822Z,13.26
2019-04-26T01:05:01.328Z,13.34
2019-04-26T01:07:29.956Z,13.43
2019-04-26T01:09:58.556Z,13.45
2019-04-26T01:12:27.075Z,13.61
2019-04-26T01:14:55.689Z,13.53
2019-04-26T01:17:25.418Z,13.21
2019-04-26T01:19:56.320Z,13.30
2019-04-26T01:22:27.810Z,13.35
2019-04-26T01:24:57.131Z,13.60
2019-04-26T01:27:28.641Z,13.66
2019-04-26T01:30:00.138Z,13.76
2019-04-26T01:32:30.730Z,13.89
2019-04-26T01:34:59.520Z,13.83
2019-04-26T01:37:30.901Z,13.77
2019-04-26T01:40:04.047Z,13.78
2019-04-26T01:42:37.752Z,13.79
2019-04-26T01:45:08.267Z,13.71
2019-04-26T01:47:37.972Z,13.76
2019-04-26T01:50:07.152Z,13.83
2019-04-26T01:52:35.770Z,13.91
2019-04-26T01:55:07.507Z,13.91
2019-04-26T01:57:37.023Z,13.71
2019-04-26T02:00:19.628Z,13.62
2019-04-26T02:02:55.965Z,13.44
2019-04-26T02:05:26.161Z,13.39
2019-04-26T02:07:56.019Z,13.37
2019-04-26T02:10:26.553Z,13.33
2019-04-26T02:12:56.181Z,13.25
2019-04-26T02:15:27.760Z,13.25
2019-04-26T02:17:59.542Z,13.20
2019-04-26T02:20:51.916Z,13.09
2019-04-26T02:23:38.302Z,13.09
2019-04-26T02:26:26.597Z,13.21
2019-04-26T02:28:55.277Z,13.13
2019-04-26T02:31:25.320Z,12.97
2019-04-26T02:33:54.902Z,12.97
2019-04-26T02:36:27.498Z,12.86
2019-04-26T02:38:56.074Z,12.83
2019-04-26T02:41:27.410Z,12.79
2019-04-26T02:43:57.906Z,12.82
2019-04-26T02:46:32.497Z,12.81
2019-04-26T02:49:15.016Z,12.81
2019-04-26T02:51:49.182Z,12.80
2019-04-26T02:54:20.759Z,12.81
2019-04-26T02:56:50.907Z,12.72
2019-04-26T02:59:22.426Z,12.60
2019-04-26T03:01:54.142Z,12.62
2019-04-26T03:04:25.623Z,12.58
2019-04-26T03:07:03.677Z,12.57
2019-04-26T03:09:31.785Z,12.54
2019-04-26T03:12:09.541Z,12.55
2019-04-26T03:14:45.417Z,12.54
2019-04-26T03:17:27.251Z,12.56
2019-04-26T03:20:11.707Z,12.49
2019-04-26T03:23:06.143Z,12.38
2019-04-26T03:25:59.343Z,12.36
2019-04-26T03:28:53.456Z,12.30
2019-04-26T03:31:24.971Z,12.32
2019-04-26T03:34:02.715Z,12.47
2019-04-26T03:37:19.556Z,12.42
2019-04-26T03:40:07.831Z,12.46
2019-04-26T03:42:54.395Z,12.35
2019-04-26T03:45:44.198Z,12.36
2019-04-26T03:48:50.447Z,12.24
2019-04-26T03:51:42.987Z,12.38
2019-04-26T03:54:23.202Z,12.55
2019-04-26T03:57:01.721Z,12.61
2019-04-26T03:59:46.880Z,12.53
2019-04-26T04:02:20.051Z,12.60
2019-04-26T04:04:53.176Z,12.58
2019-04-26T04:07:37.113Z,12.58
2019-04-26T04:10:11.763Z,12.70
2019-04-26T04:12:55.025Z,12.78
2019-04-26T04:15:42.754Z,12.81
2019-04-26T04:18:21.631Z,12.76
2019-04-26T04:21:09.557Z,12.70
2019-04-26T04:23:50.274Z,12.70
2019-04-26T04:26:21.835Z,12.76
2019-04-26T04:29:18.702Z,12.66
2019-04-26T04:31:56.191Z,12.63
2019-04-26T04:34:44.002Z,12.50
2019-04-26T04:37:16.311Z,12.50
2019-04-26T04:40:07.240Z,12.67
2019-04-26T04:42:50.362Z,12.63
2019-04-26T04:45:53.803Z,12.80
2019-04-26T04:48:51.161Z,12.80
2019-04-26T04:51:31.309Z,12.81
2019-04-26T04:54:08.706Z,12.92
2019-04-26T04:57:01.186Z,13.05
2019-04-26T04:59:38.684Z,13.10
2019-04-26T05:02:11.863Z,13.14
2019-04-26T05:05:11.914Z,13.18
2019-04-26T05:08:06.483Z,13.21
2019-04-26T05:10:36.983Z,13.22
2019-04-26T05:13:11.639Z,13.21
2019-04-26T05:15:50.697Z,13.21
2019-04-26T05:18:37.239Z,13.18
2019-04-26T05:21:17.575Z,13.30
2019-04-26T05:23:55.238Z,13.37
2019-04-26T05:26:47.448Z,13.31
2019-04-26T05:29:33.111Z,13.33
2019-04-26T05:32:22.295Z,13.28
2019-04-26T05:35:11.609Z,13.30
2019-04-26T05:38:01.021Z,13.25
2019-04-26T05:40:57.725Z,13.24
2019-04-26T05:43:50.133Z,13.25
2019-04-26T05:46:34.927Z,13.29
2019-04-26T05:49:34.360Z,13.22
2019-04-26T05:52:25.721Z,13.07
2019-04-26T05:55:13.489Z,12.93
2019-04-26T05:57:56.332Z,12.82
2019-04-26T06:00:47.329Z,12.86
2019-04-26T06:03:35.423Z,12.81
2019-04-26T06:06:39.945Z,12.58
2019-04-26T06:09:39.985Z,12.57
2019-04-26T06:12:30.715Z,12.80
2019-04-26T06:15:06.451Z,12.87
2019-04-26T06:17:57.328Z,12.93
2019-04-26T06:20:34.884Z,12.91
2019-04-26T06:23:15.301Z,12.93
2019-04-26T06:26:09.464Z,13.08
2019-04-26T06:28:49.850Z,13.12
2019-04-26T06:31:27.277Z,13.09
2019-04-26T06:34:13.640Z,13.11
2019-04-26T06:37:02.329Z,13.11
2019-04-26T06:39:39.571Z,13.08
2019-04-26T06:42:11.123Z,12.97
2019-04-26T06:45:05.033Z,13.06
2019-04-26T06:47:41.202Z,13.10
2019-04-26T06:50:23.206Z,13.00
2019-04-26T06:53:11.157Z,13.00
2019-04-26T06:55:49.821Z,12.74
2019-04-26T06:58:36.374Z,12.67
2019-04-26T07:01:15.197Z,12.76
2019-04-26T07:03:46.752Z,12.69
2019-04-26T07:06:36.394Z,12.69
2019-04-26T07:09:08.359Z,12.69
2019-04-26T07:12:00.875Z,12.68
2019-04-26T07:14:52.442Z,12.67
2019-04-26T07:17:38.875Z,12.68
2019-04-26T07:20:32.928Z,12.67
2019-04-26T07:23:25.459Z,12.67
2019-04-26T07:26:17.894Z,12.75
2019-04-26T07:29:11.857Z,12.69
2019-04-26T07:31:52.344Z,12.72
2019-04-26T07:34:25.483Z,12.70
2019-04-26T07:37:15.214Z,12.71
2019-04-26T07:39:54.207Z,12.62
2019-04-26T07:42:48.423Z,12.56
2019-04-26T07:45:21.549Z,12.61
2019-04-26T07:48:17.393Z,12.75
2019-04-26T07:51:06.525Z,12.83
2019-04-26T07:53:41.124Z,12.85
2019-04-26T07:56:21.880Z,12.71
2019-04-26T07:59:19.850Z,12.61
2019-04-26T08:01:53.025Z,12.53
2019-04-26T08:04:29.629Z,12.58
2019-04-26T08:07:01.094Z,12.58
2019-04-26T08:09:32.619Z,12.58
2019-04-26T08:12:07.970Z,12.63
2019-04-26T08:14:46.805Z,12.68
2019-04-26T08:17:25.583Z,12.83
2019-04-26T08:20:14.047Z,12.92
2019-04-26T08:22:45.821Z,13.08
2019-04-26T08:25:17.621Z,13.15
2019-04-26T08:27:48.967Z,13.06
2019-04-26T08:30:19.219Z,13.10
2019-04-26T08:33:02.216Z,13.22
2019-04-26T08:35:33.128Z,13.38
2019-04-26T08:38:08.067Z,13.65
2019-04-26T08:40:36.401Z,13.63
2019-04-26T08:43:23.500Z,13.62
2019-04-26T08:46:03.113Z,13.93
2019-04-26T08:48:36.258Z,14.15
2019-04-26T08:51:15.365Z,14.19
2019-04-26T08:53:44.323Z,14.26
2019-04-26T08:56:16.700Z,14.20
2019-04-26T08:58:48.245Z,14.07
2019-04-26T09:01:23.679Z,14.13
2019-04-26T09:04:12.688Z,14.24
2019-04-26T09:07:03.819Z,14.36
2019-04-26T09:09:35.362Z,14.40
2019-04-26T09:12:08.295Z,14.49
2019-04-26T09:14:38.465Z,14.38
2019-04-26T09:17:07.469Z,14.33
2019-04-26T09:19:36.913Z,14.37
2019-04-26T09:22:16.336Z,14.52
2019-04-26T09:25:02.800Z,14.52
2019-04-26T09:27:33.064Z,14.49
2019-04-26T09:30:04.996Z,14.40
2019-04-26T09:32:47.256Z,14.45
2019-04-26T09:35:16.342Z,14.45
2019-04-26T09:37:45.045Z,14.44
2019-04-26T09:40:20.971Z,14.38
2019-04-26T09:42:54.907Z,14.41
2019-04-26T09:45:34.243Z,14.25
2019-04-26T09:48:07.269Z,14.28
2019-04-26T09:50:37.454Z,14.35
2019-04-26T09:53:07.380Z,14.49
2019-04-26T09:55:36.906Z,14.50
2019-04-26T09:58:08.522Z,14.47
2019-04-26T10:00:37.339Z,14.58
2019-04-26T10:03:09.434Z,14.67
2019-04-26T10:05:37.079Z,14.58
2019-04-26T10:08:08.376Z,14.59
2019-04-26T10:10:36.416Z,14.71
2019-04-26T10:13:22.001Z,14.98
2019-04-26T10:15:58.075Z,15.17
2019-04-26T10:18:25.976Z,15.22
2019-04-26T10:20:54.709Z,15.25
2019-04-26T10:23:23.296Z,15.37
2019-04-26T10:25:53.514Z,15.42
2019-04-26T10:28:22.288Z,15.57
2019-04-26T10:30:51.159Z,15.73
2019-04-26T10:33:19.797Z,15.77
2019-04-26T10:35:48.523Z,15.88
2019-04-26T10:38:19.441Z,15.92
2019-04-26T10:40:47.388Z,16.17
2019-04-26T10:43:16.004Z,16.36
2019-04-26T10:45:45.437Z,16.29
2019-04-26T10:48:15.513Z,16.21
2019-04-26T10:50:44.159Z,16.12
2019-04-26T10:53:31.974Z,15.96
2019-04-26T10:56:02.312Z,16.05
2019-04-26T10:58:36.345Z,16.01
2019-04-26T11:01:12.264Z,15.80
2019-04-26T11:03:40.911Z,15.82
2019-04-26T11:06:09.550Z,16.05
2019-04-26T11:08:38.158Z,16.12
2019-04-26T11:11:09.499Z,16.02
2019-04-26T11:13:38.110Z,16.04
2019-04-26T11:16:08.828Z,16.05
2019-04-26T11:18:37.623Z,15.93
2019-04-26T11:21:07.189Z,16.03
2019-04-26T11:23:35.827Z,16.14
2019-04-26T11:26:04.435Z,16.52
2019-04-26T11:28:33.132Z,16.68
2019-04-26T11:31:01.657Z,16.87
2019-04-26T11:33:30.243Z,17.09
2019-04-26T11:35:58.842Z,17.33
2019-04-26T11:38:31.330Z,17.55
2019-04-26T11:41:05.788Z,17.82
2019-04-26T11:43:28.173Z,17.81
2019-04-26T11:46:04.297Z,17.85
2019-04-26T11:48:29.280Z,18.00
2019-04-26T11:50:57.196Z,17.70
2019-04-26T11:53:25.773Z,17.65
2019-04-26T11:55:54.359Z,17.45
2019-04-26T11:58:23.761Z,17.49
2019-04-26T12:00:56.752Z,17.52
2019-04-26T12:03:25.945Z,17.39
2019-04-26T12:06:02.020Z,17.53
2019-04-26T12:08:32.100Z,17.73
2019-04-26T12:11:00.806Z,17.76
2019-04-26T12:13:29.439Z,17.79
2019-04-26T12:15:58.679Z,17.82
2019-04-26T12:18:27.343Z,17.80
2019-04-26T12:20:57.145Z,17.77
2019-04-26T12:23:26.280Z,17.77
2019-04-26T12:25:54.926Z,17.76
2019-04-26T12:28:23.525Z,17.81
2019-04-26T12:30:54.304Z,17.94
2019-04-26T12:33:22.404Z,18.05
2019-04-26T12:35:56.935Z,17.99
2019-04-26T12:38:24.241Z,18.29
2019-04-26T12:40:51.757Z,18.50
2019-04-26T12:43:24.543Z,18.80
2019-04-26T12:45:52.950Z,18.79
2019-04-26T12:48:23.225Z,18.55
2019-04-26T12:50:51.813Z,18.52
2019-04-26T12:53:20.432Z,18.52
2019-04-26T12:55:52.713Z,18.57
2019-04-26T12:58:19.417Z,18.34
2019-04-26T13:00:54.237Z,18.14
2019-04-26T13:03:20.396Z,17.87
2019-04-26T13:05:49.747Z,17.96
2019-04-26T13:08:19.313Z,17.99
2019-04-26T13:10:58.613Z,18.18
2019-04-26T13:13:31.087Z,18.45
2019-04-26T13:16:01.382Z,18.74
2019-04-26T13:18:30.999Z,19.04
2019-04-26T13:21:03.070Z,19.35
2019-04-26T13:23:31.260Z,19.42
2019-04-26T13:26:01.420Z,19.53
2019-04-26T13:28:30.210Z,19.68
2019-04-26T13:31:01.883Z,19.74
2019-04-26T13:33:29.287Z,19.91
2019-04-26T13:36:05.158Z,19.78
2019-04-26T13:38:28.252Z,19.78
2019-04-26T13:40:59.544Z,19.63
2019-04-26T13:43:28.647Z,19.43
2019-04-26T13:45:59.033Z,19.40
2019-04-26T13:48:39.145Z,19.28
2019-04-26T13:51:13.087Z,19.18
2019-04-26T13:53:41.869Z,19.61
2019-04-26T13:56:10.539Z,19.91
2019-04-26T13:58:39.000Z,20.23
2019-04-26T14:01:09.008Z,20.20
2019-04-26T14:03:37.637Z,20.30
2019-04-26T14:06:06.266Z,20.50
2019-04-26T14:08:34.902Z,20.76
2019-04-26T14:11:03.469Z,20.76
2019-04-26T14:13:31.999Z,20.67
2019-04-26T14:16:00.809Z,20.80
2019-04-26T14:18:29.496Z,20.70
2019-04-26T14:20:58.996Z,20.64
2019-04-26T14:23:35.747Z,20.49
2019-04-26T14:26:08.947Z,20.35
2019-04-26T14:28:37.735Z,20.20
2019-04-26T14:31:06.369Z,19.79
2019-04-26T14:33:34.950Z,19.89
2019-04-26T14:36:11.329Z,20.03
2019-04-26T14:38:39.326Z,20.41
2019-04-26T14:41:04.733Z,20.60
2019-04-26T14:43:40.635Z,20.33
2019-04-26T14:46:03.819Z,20.18
2019-04-26T14:48:36.154Z,20.23
2019-04-26T14:51:08.309Z,20.25
2019-04-26T14:53:36.223Z,20.03
2019-04-26T14:56:03.417Z,19.95
2019-04-26T14:58:33.737Z,19.72
2019-04-26T15:01:04.016Z,19.79
2019-04-26T15:03:51.362Z,19.86
2019-04-26T15:06:28.333Z,20.06
2019-04-26T15:08:57.024Z,20.10
2019-04-26T15:11:25.650Z,19.90
2019-04-26T15:13:54.239Z,19.65
2019-04-26T15:16:24.415Z,19.42
2019-04-26T15:18:53.043Z,19.35
2019-04-26T15:21:22.842Z,19.50
2019-04-26T15:23:51.409Z,19.56
2019-04-26T15:26:24.233Z,19.79
2019-04-26T15:28:51.555Z,19.69
2019-04-26T15:31:21.726Z,19.68
2019-04-26T15:33:52.620Z,19.52
2019-04-26T15:36:21.023Z,19.74
2019-04-26T15:38:50.097Z,19.80
2019-04-26T15:41:29.360Z,19.74
2019-04-26T15:43:59.564Z,19.85
2019-04-26T15:46:42.650Z,19.95
2019-04-26T15:49:13.998Z,20.03
2019-04-26T15:51:42.736Z,19.82
2019-04-26T15:54:11.589Z,19.64
2019-04-26T15:56:40.258Z,19.74
2019-04-26T15:59:08.891Z,19.68
2019-04-26T16:01:41.838Z,19.58
2019-04-26T16:04:08.270Z,19.73
2019-04-26T16:06:37.324Z,19.66
2019-04-26T16:09:09.433Z,19.51
2019-04-26T16:11:38.046Z,19.36
2019-04-26T16:14:06.727Z,19.12
2019-04-26T16:16:35.248Z,19.16
2019-04-26T16:19:03.842Z,19.14
2019-04-26T16:21:32.568Z,19.18
2019-04-26T16:24:02.712Z,19.20
2019-04-26T16:26:32.957Z,19.23
2019-04-26T16:29:05.754Z,19.24
2019-04-26T16:31:42.181Z,19.09
2019-04-26T16:34:23.415Z,19.01
2019-04-26T16:36:52.614Z,18.84
2019-04-26T16:39:23.807Z,18.68
2019-04-26T16:41:52.487Z,18.58
2019-04-26T16:44:28.028Z,18.63
2019-04-26T16:46:53.926Z,18.82
2019-04-26T16:49:23.393Z,18.90
2019-04-26T16:52:01.468Z,18.90
2019-04-26T16:54:26.476Z,18.53
2019-04-26T16:56:52.725Z,18.17
2019-04-26T16:59:23.870Z,18.33
2019-04-26T17:01:53.650Z,18.54
2019-04-26T17:04:28.677Z,18.81
2019-04-26T17:06:52.956Z,18.94
2019-04-26T17:09:23.622Z,19.14
2019-04-26T17:11:52.345Z,19.31
2019-04-26T17:14:24.059Z,19.24
2019-04-26T17:16:53.243Z,19.19
2019-04-26T17:19:22.827Z,19.03
2019-04-26T17:21:56.654Z,19.08
2019-04-26T17:24:30.603Z,19.06
2019-04-26T17:27:05.479Z,18.92
2019-04-26T17:29:33.604Z,18.82
2019-04-26T17:32:02.620Z,18.64
2019-04-26T17:34:33.546Z,18.54
2019-04-26T17:37:02.484Z,18.41
2019-04-26T17:39:32.401Z,18.16
2019-04-26T17:42:01.268Z,17.94
2019-04-26T17:44:30.800Z,17.76
2019-04-26T17:47:02.135Z,17.69
2019-04-26T17:49:34.314Z,17.47
2019-04-26T17:52:01.974Z,17.25
2019-04-26T17:54:43.682Z,17.16
2019-04-26T17:57:04.262Z,17.09
2019-04-26T17:59:34.558Z,17.00
2019-04-26T18:02:01.648Z,16.84
2019-04-26T18:04:36.482Z,16.68
2019-04-26T18:07:03.905Z,16.48
2019-04-26T18:09:41.434Z,16.33
2019-04-26T18:12:03.472Z,16.18
2019-04-26T18:14:32.204Z,16.03
2019-04-26T18:17:08.308Z,15.86
2019-04-26T18:19:47.540Z,15.68
2019-04-26T18:22:20.747Z,15.51
2019-04-26T18:24:49.589Z,15.48
2019-04-26T18:27:18.209Z,15.41
2019-04-26T18:29:46.838Z,15.33
2019-04-26T18:32:15.699Z,15.22
2019-04-26T18:34:44.397Z,15.13
2019-04-26T18:37:13.422Z,15.03
2019-04-26T18:39:43.060Z,14.95
2019-04-26T18:42:11.720Z,14.90
2019-04-26T18:44:47.599Z,14.84
2019-04-26T18:47:20.496Z,14.74
2019-04-26T18:49:45.634Z,14.68
2019-04-26T18:52:14.212Z,14.59
2019-04-26T18:54:53.311Z,14.59
2019-04-26T18:57:23.709Z,14.54
2019-04-26T18:59:52.958Z,14.55
2019-04-26T19:02:23.617Z,14.52
2019-04-26T19:04:52.951Z,14.49
2019-04-26T19:07:31.774Z,14.51
2019-04-26T19:10:02.836Z,14.52
2019-04-26T19:12:26.815Z,14.46
2019-04-26T19:15:11.440Z,14.37
2019-04-26T19:18:00.207Z,14.30
2019-04-26T19:20:28.665Z,14.25
2019-04-26T19:22:59.048Z,14.26
2019-04-26T19:25:29.859Z,14.24
2019-04-26T19:27:58.901Z,14.25
2019-04-26T19:30:28.485Z,14.19
2019-04-26T19:32:57.088Z,14.13
2019-04-26T19:35:25.616Z,13.99
2019-04-26T19:37:54.235Z,13.85
2019-04-26T19:40:22.979Z,13.68
2019-04-26T19:42:57.122Z,13.62
2019-04-26T19:45:31.006Z,13.58
2019-04-26T19:48:02.349Z,13.56
2019-04-26T19:50:50.552Z,13.54
2019-04-26T19:53:26.862Z,13.52
2019-04-26T19:56:01.641Z,13.46
2019-04-26T19:58:34.765Z,13.37
2019-04-26T20:01:04.314Z,13.37
2019-04-26T20:03:33.895Z,13.38
2019-04-26T20:06:02.624Z,13.38
2019-04-26T20:08:35.469Z,13.40
2019-04-26T20:11:01.563Z,13.47
2019-04-26T20:13:31.683Z,13.48
2019-04-26T20:16:02.602Z,13.53
2019-04-26T20:18:32.793Z,13.54
2019-04-26T20:21:02.091Z,13.51
2019-04-26T20:23:33.469Z,13.46
2019-04-26T20:26:06.992Z,13.43
2019-04-26T20:28:35.903Z,13.37
2019-04-26T20:31:09.829Z,13.29
2019-04-26T20:33:38.359Z,13.22
2019-04-26T20:36:06.956Z,13.16
2019-04-26T20:38:42.562Z,13.09
2019-04-26T20:41:06.267Z,13.12
2019-04-26T20:43:36.745Z,13.08
2019-04-26T20:46:14.514Z,13.08
2019-04-26T20:48:37.040Z,13.00
2019-04-26T20:51:06.506Z,12.93
2019-04-26T20:53:41.129Z,12.90
2019-04-26T20:56:09.824Z,12.87
2019-04-26T20:58:37.554Z,12.87
2019-04-26T21:01:12.482Z,12.82
2019-04-26T21:03:42.905Z,12.73
2019-04-26T21:06:09.310Z,12.65
2019-04-26T21:08:37.932Z,12.65
2019-04-26T21:11:06.589Z,12.64
2019-04-26T21:13:35.206Z,12.64
2019-04-26T21:16:10.761Z,12.67
2019-04-26T21:18:40.147Z,12.65
2019-04-26T21:21:05.981Z,12.63
2019-04-26T21:23:39.932Z,12.63
2019-04-26T21:26:24.891Z,12.63
2019-04-26T21:28:55.152Z,12.60
2019-04-26T21:31:31.348Z,12.48
2019-04-26T21:34:07.890Z,12.48
2019-04-26T21:36:46.013Z,12.52
2019-04-26T21:39:19.272Z,12.48
2019-04-26T21:41:49.644Z,12.43
2019-04-26T21:44:18.190Z,12.41
2019-04-26T21:46:49.684Z,12.42
2019-04-26T21:49:20.194Z,12.51
2019-04-26T21:51:51.259Z,12.60
2019-04-26T21:54:18.035Z,12.76
2019-04-26T21:56:49.623Z,12.88
2019-04-26T21:59:18.337Z,13.00
2019-04-26T22:01:48.267Z,13.01
2019-04-26T22:04:17.735Z,13.11
2019-04-26T22:06:46.292Z,13.12
2019-04-26T22:09:17.911Z,13.20
2019-04-26T22:11:49.435Z,13.27
2019-04-26T22:14:19.940Z,13.24
2019-04-26T22:16:50.426Z,13.27
2019-04-26T22:19:23.270Z,13.31
2019-04-26T22:22:08.727Z,13.31
2019-04-26T22:24:43.486Z,13.26
2019-04-26T22:27:13.262Z,13.30
2019-04-26T22:29:43.485Z,13.36
2019-04-26T22:32:16.011Z,13.41
2019-04-26T22:34:44.885Z,13.42
2019-04-26T22:37:18.917Z,13.38
2019-04-26T22:39:44.705Z,13.33
2019-04-26T22:42:13.916Z,13.38
2019-04-26T22:44:53.937Z,13.40
2019-04-26T22:47:33.902Z,13.39
2019-04-26T22:50:04.213Z,13.42
2019-04-26T22:52:33.488Z,13.40
2019-04-26T22:55:03.944Z,13.41
2019-04-26T22:57:33.419Z,13.44
2019-04-26T23:00:01.966Z,13.48
2019-04-26T23:02:30.584Z,13.51
2019-04-26T23:05:00.695Z,13.53
2019-04-26T23:07:29.540Z,13.59
2019-04-26T23:09:58.186Z,13.55
2019-04-26T23:12:34.497Z,13.55
2019-04-26T23:15:25.928Z,13.58
2019-04-26T23:17:55.540Z,13.60
2019-04-26T23:20:43.060Z,13.60
2019-04-26T23:23:13.483Z,13.60
2019-04-26T23:25:43.489Z,13.61
2019-04-26T23:28:12.340Z,13.60
2019-04-26T23:30:42.522Z,13.59
2019-04-26T23:33:13.152Z,13.59
2019-04-26T23:35:45.714Z,13.63
2019-04-26T23:38:13.511Z,13.62
2019-04-26T23:40:43.033Z,13.63
2019-04-26T23:43:12.997Z,13.55
2019-04-26T23:45:48.198Z,13.47
2019-04-26T23:48:13.361Z,13.49
2019-04-26T23:50:43.059Z,13.52
2019-04-26T23:53:13.873Z,13.48
2019-04-26T23:55:45.208Z,13.49
2019-04-26T23:58:16.707Z,13.49
